sensor_id;sensor_type;location;lat;lon;timestamp;P1;durP1;ratioP1;P2;durP2;ratioP2
63089;SDS011;49174;43.198;27.824;2023-02-17T04:02:11;47.35;;;28.75;;
63089;SDS011;49174;43.198;27.824;2023-02-17T04:04:37;49.50;;;27.02;;
63089;SDS011;49174;43.198;27.824;2023-02-17T04:15:30;46.15;;;27.50;;
63089;SDS011;49174;43.198;27.824;2023-02-17T04:56:03;50.13;;;26.60;;
63089;SDS011;49174;43.198;27.824;2023-02-17T04:58:29;47.33;;;27.45;;
63089;SDS011;49174;43.198;27.824;2023-02-17T05:00:57;47.08;;;25.75;;
63089;SDS011;49174;43.198;27.824;2023-02-17T05:03:23;44.05;;;25.35;;
63089;SDS011;49174;43.198;27.824;2023-02-17T05:05:49;46.92;;;26.70;;
63089;SDS011;49174;43.198;27.824;2023-02-17T05:08:14;44.63;;;25.85;;
63089;SDS011;49174;43.198;27.824;2023-02-17T05:10:40;47.40;;;26.92;;
63089;SDS011;49174;43.198;27.824;2023-02-17T05:13:05;51.25;;;25.73;;
63089;SDS011;49174;43.198;27.824;2023-02-17T05:15:31;52.67;;;27.70;;
63089;SDS011;49174;43.198;27.824;2023-02-17T05:17:56;59.25;;;30.83;;
63089;SDS011;49174;43.198;27.824;2023-02-17T05:20:22;58.13;;;33.42;;
63089;SDS011;49174;43.198;27.824;2023-02-17T05:22:47;60.42;;;33.70;;
63089;SDS011;49174;43.198;27.824;2023-02-17T05:25:13;55.03;;;31.63;;
63089;SDS011;49174;43.198;27.824;2023-02-17T05:27:38;56.40;;;31.75;;
63089;SDS011;49174;43.198;27.824;2023-02-17T05:30:04;59.65;;;33.08;;
63089;SDS011;49174;43.198;27.824;2023-02-17T05:32:31;52.28;;;32.50;;
63089;SDS011;49174;43.198;27.824;2023-02-17T05:34:56;57.95;;;35.75;;
63089;SDS011;49174;43.198;27.824;2023-02-17T05:37:22;56.65;;;35.72;;
63089;SDS011;49174;43.198;27.824;2023-02-17T05:39:50;58.38;;;35.47;;
63089;SDS011;49174;43.198;27.824;2023-02-17T05:42:15;61.95;;;35.80;;
63089;SDS011;49174;43.198;27.824;2023-02-17T05:44:41;61.45;;;38.75;;
63089;SDS011;49174;43.198;27.824;2023-02-17T05:47:07;70.65;;;41.38;;
63089;SDS011;49174;43.198;27.824;2023-02-17T05:49:32;60.42;;;37.53;;
63089;SDS011;49174;43.198;27.824;2023-02-17T05:51:58;64.05;;;36.97;;
63089;SDS011;49174;43.198;27.824;2023-02-17T05:54:23;59.03;;;35.40;;
63089;SDS011;49174;43.198;27.824;2023-02-17T05:56:49;57.65;;;35.10;;
63089;SDS011;49174;43.198;27.824;2023-02-17T05:59:14;52.80;;;34.50;;
63089;SDS011;49174;43.198;27.824;2023-02-17T06:01:40;54.53;;;36.50;;
63089;SDS011;49174;43.198;27.824;2023-02-17T06:04:05;53.42;;;35.55;;
63089;SDS011;49174;43.198;27.824;2023-02-17T06:06:31;60.38;;;39.50;;
63089;SDS011;49174;43.198;27.824;2023-02-17T06:08:56;92.50;;;53.25;;
63089;SDS011;49174;43.198;27.824;2023-02-17T06:11:22;69.93;;;43.15;;
63089;SDS011;49174;43.198;27.824;2023-02-17T06:13:47;55.25;;;35.88;;
63089;SDS011;49174;43.198;27.824;2023-02-17T06:16:13;59.33;;;34.85;;
63089;SDS011;49174;43.198;27.824;2023-02-17T06:18:38;48.97;;;32.95;;
63089;SDS011;49174;43.198;27.824;2023-02-17T06:21:04;48.45;;;33.00;;
63089;SDS011;49174;43.198;27.824;2023-02-17T06:23:30;52.70;;;34.55;;
63089;SDS011;49174;43.198;27.824;2023-02-17T06:25:55;49.38;;;33.75;;
63089;SDS011;49174;43.198;27.824;2023-02-17T06:28:21;55.38;;;36.38;;
63089;SDS011;49174;43.198;27.824;2023-02-17T06:30:46;61.97;;;38.35;;
63089;SDS011;49174;43.198;27.824;2023-02-17T06:33:12;55.60;;;38.58;;
63089;SDS011;49174;43.198;27.824;2023-02-17T06:35:37;62.30;;;39.55;;
63089;SDS011;49174;43.198;27.824;2023-02-17T06:38:03;57.72;;;38.22;;
63089;SDS011;49174;43.198;27.824;2023-02-17T06:40:29;64.82;;;40.85;;
63089;SDS011;49174;43.198;27.824;2023-02-17T06:42:55;58.58;;;40.28;;
63089;SDS011;49174;43.198;27.824;2023-02-17T06:45:21;56.05;;;36.65;;
63089;SDS011;49174;43.198;27.824;2023-02-17T06:47:47;54.15;;;38.05;;
63089;SDS011;49174;43.198;27.824;2023-02-17T06:50:12;52.97;;;35.08;;
63089;SDS011;49174;43.198;27.824;2023-02-17T06:52:39;52.72;;;36.05;;
63089;SDS011;49174;43.198;27.824;2023-02-17T06:55:05;56.17;;;35.50;;
63089;SDS011;49174;43.198;27.824;2023-02-17T06:57:31;55.50;;;37.92;;
63089;SDS011;49174;43.198;27.824;2023-02-17T06:59:57;112.30;;;58.85;;
63089;SDS011;49174;43.198;27.824;2023-02-17T07:02:22;97.95;;;56.72;;
63089;SDS011;49174;43.198;27.824;2023-02-17T07:04:48;62.78;;;40.50;;
63089;SDS011;49174;43.198;27.824;2023-02-17T07:07:13;181.65;;;100.68;;
63089;SDS011;49174;43.198;27.824;2023-02-17T07:09:39;64.18;;;39.72;;
63089;SDS011;49174;43.198;27.824;2023-02-17T07:12:05;46.10;;;31.92;;
63089;SDS011;49174;43.198;27.824;2023-02-17T07:14:32;47.33;;;30.27;;
63089;SDS011;49174;43.198;27.824;2023-02-17T07:16:58;45.40;;;30.77;;
63089;SDS011;49174;43.198;27.824;2023-02-17T07:19:25;46.05;;;28.48;;
63089;SDS011;49174;43.198;27.824;2023-02-17T07:21:51;41.65;;;26.75;;
63089;SDS011;49174;43.198;27.824;2023-02-17T07:24:16;39.22;;;23.05;;
63089;SDS011;49174;43.198;27.824;2023-02-17T07:26:42;41.05;;;23.42;;
63089;SDS011;49174;43.198;27.824;2023-02-17T07:29:07;39.38;;;22.95;;
63089;SDS011;49174;43.198;27.824;2023-02-17T07:31:33;41.65;;;23.58;;
63089;SDS011;49174;43.198;27.824;2023-02-17T07:33:59;40.97;;;21.98;;
63089;SDS011;49174;43.198;27.824;2023-02-17T07:36:26;42.53;;;24.75;;
63089;SDS011;49174;43.198;27.824;2023-02-17T07:38:52;40.35;;;24.33;;
63089;SDS011;49174;43.198;27.824;2023-02-17T07:41:19;44.40;;;24.38;;
63089;SDS011;49174;43.198;27.824;2023-02-17T07:43:47;32.17;;;19.02;;
63089;SDS011;49174;43.198;27.824;2023-02-17T07:48:57;38.92;;;19.27;;
63089;SDS011;49174;43.198;27.824;2023-02-17T07:51:23;29.58;;;19.40;;
63089;SDS011;49174;43.198;27.824;2023-02-17T08:45:32;38.88;;;20.73;;
63089;SDS011;49174;43.198;27.824;2023-02-17T08:47:57;26.08;;;17.13;;
63089;SDS011;49174;43.198;27.824;2023-02-17T08:50:23;33.35;;;20.17;;
63089;SDS011;49174;43.198;27.824;2023-02-17T08:52:48;31.55;;;17.88;;
63089;SDS011;49174;43.198;27.824;2023-02-17T08:55:14;29.00;;;15.90;;
63089;SDS011;49174;43.198;27.824;2023-02-17T08:57:45;24.55;;;15.55;;
63089;SDS011;49174;43.198;27.824;2023-02-17T09:00:14;31.08;;;16.98;;
63089;SDS011;49174;43.198;27.824;2023-02-17T09:02:41;26.60;;;16.35;;
63089;SDS011;49174;43.198;27.824;2023-02-17T09:05:12;30.45;;;17.38;;
63089;SDS011;49174;43.198;27.824;2023-02-17T09:07:39;28.35;;;16.55;;
63089;SDS011;49174;43.198;27.824;2023-02-17T09:10:07;27.35;;;17.05;;
63089;SDS011;49174;43.198;27.824;2023-02-17T09:12:34;28.23;;;17.33;;
63089;SDS011;49174;43.198;27.824;2023-02-17T09:17:50;25.50;;;14.70;;
63089;SDS011;49174;43.198;27.824;2023-02-17T09:20:16;25.13;;;14.20;;
63089;SDS011;49174;43.198;27.824;2023-02-17T09:22:43;24.30;;;12.65;;
63089;SDS011;49174;43.198;27.824;2023-02-17T09:25:10;21.88;;;13.35;;
63089;SDS011;49174;43.198;27.824;2023-02-17T09:27:35;22.88;;;12.60;;
63089;SDS011;49174;43.198;27.824;2023-02-17T09:30:01;23.20;;;12.68;;
63089;SDS011;49174;43.198;27.824;2023-02-17T09:32:28;21.60;;;12.30;;
63089;SDS011;49174;43.198;27.824;2023-02-17T09:34:54;22.70;;;12.60;;
63089;SDS011;49174;43.198;27.824;2023-02-17T09:40:17;23.30;;;14.25;;
63089;SDS011;49174;43.198;27.824;2023-02-17T09:42:45;46.13;;;26.38;;
63089;SDS011;49174;43.198;27.824;2023-02-17T09:47:46;33.33;;;21.75;;
63089;SDS011;49174;43.198;27.824;2023-02-17T10:01:21;26.52;;;14.25;;
63089;SDS011;49174;43.198;27.824;2023-02-17T10:06:40;26.35;;;15.20;;
63089;SDS011;49174;43.198;27.824;2023-02-17T10:15:15;27.30;;;15.02;;
63089;SDS011;49174;43.198;27.824;2023-02-17T10:54:23;18.55;;;12.07;;
63089;SDS011;49174;43.198;27.824;2023-02-17T10:57:18;23.10;;;12.05;;
63089;SDS011;49174;43.198;27.824;2023-02-17T11:03:04;21.40;;;11.15;;
63089;SDS011;49174;43.198;27.824;2023-02-17T11:11:18;20.30;;;12.05;;
63089;SDS011;49174;43.198;27.824;2023-02-17T11:19:24;19.60;;;12.18;;
63089;SDS011;49174;43.198;27.824;2023-02-17T11:21:55;21.38;;;12.00;;
63089;SDS011;49174;43.198;27.824;2023-02-17T11:27:08;19.70;;;11.85;;
63089;SDS011;49174;43.198;27.824;2023-02-17T12:45:40;14.27;;;9.32;;
63089;SDS011;49174;43.198;27.824;2023-02-17T12:48:22;15.10;;;9.90;;
63089;SDS011;49174;43.198;27.824;2023-02-17T12:51:10;14.15;;;8.90;;
63089;SDS011;49174;43.198;27.824;2023-02-17T13:01:28;14.88;;;9.88;;
63089;SDS011;49174;43.198;27.824;2023-02-17T13:03:59;14.68;;;8.77;;
63089;SDS011;49174;43.198;27.824;2023-02-17T13:12:39;16.10;;;9.05;;
63089;SDS011;49174;43.198;27.824;2023-02-17T16:43:08;46.25;;;23.33;;
63089;SDS011;49174;43.198;27.824;2023-02-17T16:45:35;39.33;;;22.33;;
63089;SDS011;49174;43.198;27.824;2023-02-17T16:56:12;39.97;;;24.58;;
63089;SDS011;49174;43.198;27.824;2023-02-17T16:58:42;44.58;;;23.30;;
63089;SDS011;49174;43.198;27.824;2023-02-17T17:01:18;51.63;;;28.30;;
63089;SDS011;49174;43.198;27.824;2023-02-17T17:06:26;50.03;;;27.50;;
63089;SDS011;49174;43.198;27.824;2023-02-17T17:37:11;37.75;;;22.23;;
63089;SDS011;49174;43.198;27.824;2023-02-17T17:39:37;36.03;;;21.52;;
63089;SDS011;49174;43.198;27.824;2023-02-17T17:42:04;36.28;;;21.55;;
63089;SDS011;49174;43.198;27.824;2023-02-17T17:44:30;33.55;;;21.63;;
63089;SDS011;49174;43.198;27.824;2023-02-17T17:46:55;39.25;;;23.77;;
63089;SDS011;49174;43.198;27.824;2023-02-17T17:49:22;40.85;;;22.60;;
63089;SDS011;49174;43.198;27.824;2023-02-17T17:51:47;43.03;;;23.23;;
63089;SDS011;49174;43.198;27.824;2023-02-17T17:54:13;40.38;;;23.13;;
63089;SDS011;49174;43.198;27.824;2023-02-17T17:56:39;37.67;;;21.92;;
63089;SDS011;49174;43.198;27.824;2023-02-17T17:59:09;37.75;;;22.40;;
63089;SDS011;49174;43.198;27.824;2023-02-17T18:01:36;39.00;;;23.65;;
63089;SDS011;49174;43.198;27.824;2023-02-17T18:04:02;41.17;;;23.23;;
63089;SDS011;49174;43.198;27.824;2023-02-17T18:06:29;43.35;;;25.70;;
63089;SDS011;49174;43.198;27.824;2023-02-17T18:09:03;41.63;;;24.13;;
63089;SDS011;49174;43.198;27.824;2023-02-17T18:11:30;37.20;;;23.08;;
63089;SDS011;49174;43.198;27.824;2023-02-17T18:14:05;41.72;;;25.98;;
63089;SDS011;49174;43.198;27.824;2023-02-17T18:16:33;44.72;;;28.15;;
63089;SDS011;49174;43.198;27.824;2023-02-17T18:18:59;44.90;;;29.75;;
63089;SDS011;49174;43.198;27.824;2023-02-17T18:21:27;72.30;;;44.65;;
63089;SDS011;49174;43.198;27.824;2023-02-17T18:23:52;133.10;;;69.35;;
63089;SDS011;49174;43.198;27.824;2023-02-17T18:26:18;58.95;;;37.25;;
63089;SDS011;49174;43.198;27.824;2023-02-17T18:28:44;111.35;;;63.88;;
63089;SDS011;49174;43.198;27.824;2023-02-17T18:31:10;87.53;;;53.67;;
63089;SDS011;49174;43.198;27.824;2023-02-17T18:33:40;70.03;;;45.85;;
63089;SDS011;49174;43.198;27.824;2023-02-17T18:36:15;57.00;;;40.10;;
63089;SDS011;49174;43.198;27.824;2023-02-17T18:38:43;70.78;;;48.13;;
63089;SDS011;49174;43.198;27.824;2023-02-17T18:41:22;63.50;;;41.83;;
63089;SDS011;49174;43.198;27.824;2023-02-17T18:43:53;72.85;;;47.08;;
63089;SDS011;49174;43.198;27.824;2023-02-17T18:46:19;63.88;;;42.35;;
63089;SDS011;49174;43.198;27.824;2023-02-17T18:48:45;62.08;;;40.25;;
63089;SDS011;49174;43.198;27.824;2023-02-17T18:51:13;78.43;;;51.53;;
63089;SDS011;49174;43.198;27.824;2023-02-17T18:53:40;75.13;;;46.60;;
63089;SDS011;49174;43.198;27.824;2023-02-17T18:56:10;67.70;;;40.65;;
63089;SDS011;49174;43.198;27.824;2023-02-17T18:58:37;58.80;;;37.08;;
63089;SDS011;49174;43.198;27.824;2023-02-17T19:01:02;57.63;;;36.05;;
63089;SDS011;49174;43.198;27.824;2023-02-17T19:03:28;54.40;;;34.00;;
63089;SDS011;49174;43.198;27.824;2023-02-17T19:05:55;64.75;;;40.15;;
63089;SDS011;49174;43.198;27.824;2023-02-17T19:11:17;68.70;;;46.92;;
63089;SDS011;49174;43.198;27.824;2023-02-17T19:13:45;79.80;;;50.28;;
63089;SDS011;49174;43.198;27.824;2023-02-17T19:16:12;92.47;;;50.42;;
63089;SDS011;49174;43.198;27.824;2023-02-17T19:27:30;60.17;;;36.78;;
63089;SDS011;49174;43.198;27.824;2023-02-17T19:29:56;50.33;;;34.83;;
63089;SDS011;49174;43.198;27.824;2023-02-17T19:51:15;92.00;;;55.28;;
63089;SDS011;49174;43.198;27.824;2023-02-17T19:53:41;87.88;;;56.67;;
63089;SDS011;49174;43.198;27.824;2023-02-17T19:56:11;89.07;;;56.80;;
63089;SDS011;49174;43.198;27.824;2023-02-17T19:58:40;83.10;;;53.65;;
63089;SDS011;49174;43.198;27.824;2023-02-17T20:01:08;72.85;;;46.65;;
63089;SDS011;49174;43.198;27.824;2023-02-17T20:03:38;71.95;;;44.15;;
63089;SDS011;49174;43.198;27.824;2023-02-17T20:06:07;60.60;;;39.15;;
63089;SDS011;49174;43.198;27.824;2023-02-17T20:08:35;48.40;;;32.95;;
63089;SDS011;49174;43.198;27.824;2023-02-17T20:11:02;46.05;;;32.35;;
63089;SDS011;49174;43.198;27.824;2023-02-17T20:13:32;43.42;;;27.83;;
63089;SDS011;49174;43.198;27.824;2023-02-17T20:16:02;45.20;;;29.40;;
63089;SDS011;49174;43.198;27.824;2023-02-17T20:18:37;40.50;;;27.92;;
63089;SDS011;49174;43.198;27.824;2023-02-17T20:21:06;41.25;;;27.52;;
63089;SDS011;49174;43.198;27.824;2023-02-17T20:39:44;47.25;;;30.58;;
63089;SDS011;49174;43.198;27.824;2023-02-17T20:42:09;46.83;;;29.15;;
63089;SDS011;49174;43.198;27.824;2023-02-17T20:44:35;49.83;;;31.83;;
63089;SDS011;49174;43.198;27.824;2023-02-17T20:47:01;47.22;;;28.33;;
63089;SDS011;49174;43.198;27.824;2023-02-17T20:49:27;46.85;;;30.92;;
63089;SDS011;49174;43.198;27.824;2023-02-17T20:51:53;48.17;;;30.25;;
63089;SDS011;49174;43.198;27.824;2023-02-17T20:54:19;46.88;;;30.58;;
63089;SDS011;49174;43.198;27.824;2023-02-17T20:56:45;54.10;;;31.65;;
63089;SDS011;49174;43.198;27.824;2023-02-17T20:59:12;50.60;;;31.13;;
63089;SDS011;49174;43.198;27.824;2023-02-17T21:07:02;51.42;;;30.23;;
63089;SDS011;49174;43.198;27.824;2023-02-17T21:09:27;33.97;;;22.77;;
63089;SDS011;49174;43.198;27.824;2023-02-17T21:11:54;34.53;;;21.70;;
63089;SDS011;49174;43.198;27.824;2023-02-17T21:22:25;34.33;;;23.13;;
63089;SDS011;49174;43.198;27.824;2023-02-17T21:24:50;34.30;;;23.52;;
63089;SDS011;49174;43.198;27.824;2023-02-17T21:27:17;36.08;;;22.05;;
63089;SDS011;49174;43.198;27.824;2023-02-17T21:32:24;30.92;;;21.35;;
63089;SDS011;49174;43.198;27.824;2023-02-17T21:34:53;43.38;;;26.20;;
63089;SDS011;49174;43.198;27.824;2023-02-17T21:37:19;42.88;;;27.35;;
63089;SDS011;49174;43.198;27.824;2023-02-17T21:39:44;118.65;;;49.17;;
63089;SDS011;49174;43.198;27.824;2023-02-17T21:47:34;38.22;;;22.65;;
63089;SDS011;49174;43.198;27.824;2023-02-17T21:52:55;34.33;;;22.42;;
63089;SDS011;49174;43.198;27.824;2023-02-17T21:55:21;40.53;;;23.75;;
63089;SDS011;49174;43.198;27.824;2023-02-17T22:05:39;40.80;;;22.50;;
63089;SDS011;49174;43.198;27.824;2023-02-17T22:08:05;40.92;;;23.08;;
63089;SDS011;49174;43.198;27.824;2023-02-17T22:10:35;48.80;;;28.25;;
63089;SDS011;49174;43.198;27.824;2023-02-17T22:13:03;64.97;;;32.38;;
63089;SDS011;49174;43.198;27.824;2023-02-17T22:15:31;62.08;;;32.80;;
63089;SDS011;49174;43.198;27.824;2023-02-17T22:17:57;63.50;;;33.38;;
63089;SDS011;49174;43.198;27.824;2023-02-17T22:20:23;68.50;;;31.33;;
63089;SDS011;49174;43.198;27.824;2023-02-17T22:22:49;59.08;;;29.88;;
63089;SDS011;49174;43.198;27.824;2023-02-17T22:25:15;61.22;;;27.35;;
63089;SDS011;49174;43.198;27.824;2023-02-17T22:27:41;45.92;;;24.70;;
63089;SDS011;49174;43.198;27.824;2023-02-17T22:30:07;39.28;;;22.80;;
63089;SDS011;49174;43.198;27.824;2023-02-17T22:32:34;33.83;;;19.88;;
63089;SDS011;49174;43.198;27.824;2023-02-17T22:35:00;30.13;;;17.60;;
63089;SDS011;49174;43.198;27.824;2023-02-17T22:37:26;34.30;;;17.65;;
63089;SDS011;49174;43.198;27.824;2023-02-17T22:39:52;29.63;;;16.58;;
63089;SDS011;49174;43.198;27.824;2023-02-17T23:18:56;33.20;;;19.25;;
63089;SDS011;49174;43.198;27.824;2023-02-17T23:21:21;32.85;;;18.75;;
63089;SDS011;49174;43.198;27.824;2023-02-17T23:23:47;29.98;;;21.23;;
63089;SDS011;49174;43.198;27.824;2023-02-17T23:26:13;32.10;;;21.27;;
63089;SDS011;49174;43.198;27.824;2023-02-17T23:28:39;31.08;;;20.95;;
63089;SDS011;49174;43.198;27.824;2023-02-17T23:31:08;33.25;;;19.55;;
63089;SDS011;49174;43.198;27.824;2023-02-17T23:33:34;34.58;;;19.73;;
63089;SDS011;49174;43.198;27.824;2023-02-17T23:38:39;35.35;;;22.35;;
63089;SDS011;49174;43.198;27.824;2023-02-17T23:41:05;38.47;;;23.23;;
